createdAt,value
2022-07-28T08:10:18.841Z,79.01
2022-07-28T08:12:52.096Z,77.24
2022-07-28T08:15:26.696Z,74.27
2022-07-28T08:18:02.337Z,73.88
2022-07-28T08:20:35.377Z,76.86
2022-07-28T08:23:09.458Z,73.67
2022-07-28T08:25:42.460Z,74.51
2022-07-28T08:28:15.458Z,74.85
2022-07-28T08:30:48.379Z,75.22
2022-07-28T08:33:22.341Z,74.76
2022-07-28T08:35:57.146Z,71.84
2022-07-28T08:38:30.578Z,71.96
2022-07-28T08:41:06.495Z,69.07
2022-07-28T08:43:43.258Z,68.82
2022-07-28T08:46:16.929Z,70.81
2022-07-28T08:48:52.774Z,71.22
2022-07-28T08:51:29.178Z,71.03
2022-07-28T08:54:03.924Z,70.87
2022-07-28T08:56:48.134Z,67.78
2022-07-28T08:59:21.587Z,69.26
2022-07-28T09:01:57.639Z,64.29
2022-07-28T09:04:34.617Z,61.05
2022-07-28T09:07:07.857Z,62.41
2022-07-28T09:09:41.296Z,62.53
2022-07-28T09:12:14.978Z,64.01
2022-07-28T09:14:49.576Z,63.12
2022-07-28T09:17:23.145Z,61.37
2022-07-28T09:19:56.024Z,63.04
2022-07-28T09:22:27.216Z,60.15
2022-07-28T09:24:59.737Z,61.10
2022-07-28T09:27:45.098Z,60.45
2022-07-28T09:30:17.939Z,59.28
2022-07-28T09:32:49.257Z,58.78
2022-07-28T09:35:25.498Z,56.40
2022-07-28T09:38:06.234Z,55.70
2022-07-28T09:40:39.222Z,55.46
2022-07-28T09:43:10.768Z,56.37
2022-07-28T09:45:43.338Z,51.74
2022-07-28T09:48:19.040Z,52.32
2022-07-28T09:50:52.018Z,52.75
2022-07-28T09:53:29.059Z,52.53
2022-07-28T09:56:03.745Z,52.61
2022-07-28T09:58:37.298Z,52.20
2022-07-28T10:01:13.224Z,51.50
2022-07-28T10:03:50.584Z,52.61
2022-07-28T10:06:30.378Z,51.25
2022-07-28T10:09:06.141Z,54.22
2022-07-28T10:11:41.745Z,51.05
2022-07-28T10:14:16.304Z,51.25
2022-07-28T10:16:53.631Z,52.37
2022-07-28T10:19:27.577Z,51.37
2022-07-28T10:22:01.496Z,51.16
2022-07-28T10:24:37.459Z,48.64
2022-07-28T10:27:10.935Z,48.14
2022-07-28T10:29:46.339Z,50.45
2022-07-28T10:32:19.217Z,50.16
2022-07-28T10:34:51.016Z,48.13
2022-07-28T10:37:28.577Z,48.80
2022-07-28T10:40:10.118Z,48.48
2022-07-28T10:43:04.783Z,46.54
2022-07-28T10:46:04.490Z,48.07
2022-07-28T10:48:33.323Z,48.05
2022-07-28T10:51:07.025Z,48.43
2022-07-28T10:54:03.815Z,49.54
2022-07-28T10:56:48.201Z,48.59
2022-07-28T10:59:37.465Z,48.48
2022-07-28T11:02:11.074Z,48.17
2022-07-28T11:05:02.298Z,48.73
2022-07-28T11:07:44.055Z,47.55
2022-07-28T11:10:27.176Z,46.89
2022-07-28T11:13:04.053Z,47.54
2022-07-28T11:15:38.941Z,47.72
2022-07-28T11:18:13.337Z,49.69
2022-07-28T11:21:09.699Z,48.25
2022-07-28T11:23:49.260Z,46.18
2022-07-28T11:26:39.233Z,45.88
2022-07-28T11:29:23.817Z,49.34
2022-07-28T11:32:04.938Z,46.47
2022-07-28T11:35:15.018Z,45.78
2022-07-28T11:38:17.057Z,46.79
2022-07-28T11:40:52.137Z,47.38
2022-07-28T11:43:44.300Z,49.04
2022-07-28T11:46:38.597Z,47.99
2022-07-28T11:49:19.987Z,46.54
2022-07-28T11:52:11.499Z,46.65
2022-07-28T11:54:49.627Z,45.74
2022-07-28T11:57:24.617Z,44.54
2022-07-28T12:00:00.538Z,44.69
2022-07-28T12:02:34.706Z,44.68
2022-07-28T12:05:12.650Z,44.38
2022-07-28T12:07:48.617Z,43.68
2022-07-28T12:13:39.350Z,44.31
2022-07-28T12:16:15.056Z,43.75
2022-07-28T12:18:53.776Z,44.30
2022-07-28T12:21:46.631Z,44.13
2022-07-28T12:24:28.225Z,45.13
2022-07-28T12:27:01.858Z,45.18
2022-07-28T12:29:36.077Z,45.60
2022-07-28T12:32:11.012Z,45.35
2022-07-28T12:34:45.050Z,42.96
2022-07-28T12:37:18.257Z,43.88
2022-07-28T12:39:55.145Z,43.78
2022-07-28T12:42:34.300Z,44.64
2022-07-28T12:45:10.538Z,44.09
2022-07-28T12:47:44.060Z,44.30
2022-07-28T12:50:19.458Z,45.53
2022-07-28T12:56:01.160Z,43.49
2022-07-28T12:58:36.697Z,43.52
2022-07-28T13:01:12.871Z,44.77
2022-07-28T13:03:53.899Z,43.93
2022-07-28T13:06:27.619Z,43.11
2022-07-28T13:09:04.659Z,42.32
2022-07-28T13:11:47.107Z,44.64
2022-07-28T13:14:20.305Z,42.07
2022-07-28T13:17:02.431Z,42.56
2022-07-28T13:19:38.462Z,42.46
2022-07-28T13:22:15.618Z,41.99
2022-07-28T13:24:49.025Z,43.42
2022-07-28T13:27:21.777Z,41.21
2022-07-28T13:29:52.858Z,42.39
2022-07-28T13:32:28.635Z,41.37
2022-07-28T13:35:02.022Z,41.68
2022-07-28T13:37:36.658Z,41.05
2022-07-28T13:40:11.437Z,41.00
2022-07-28T13:42:53.449Z,42.17
2022-07-28T13:45:31.021Z,42.15
2022-07-28T13:48:05.016Z,41.70
2022-07-28T13:50:40.058Z,43.51
2022-07-28T13:53:11.022Z,42.59
2022-07-28T13:56:02.300Z,43.68
2022-07-28T13:58:32.898Z,41.37
2022-07-28T14:01:07.062Z,44.09
2022-07-28T14:03:55.284Z,43.27
2022-07-28T14:06:30.697Z,43.03
2022-07-28T14:09:04.546Z,42.83
2022-07-28T14:11:37.616Z,42.06
2022-07-28T14:14:12.491Z,43.06
2022-07-28T14:16:47.876Z,42.56
2022-07-28T14:19:23.063Z,42.34
2022-07-28T14:22:14.085Z,42.08
2022-07-28T14:24:47.260Z,42.42
2022-07-28T14:27:28.636Z,42.98
2022-07-28T14:30:03.368Z,42.35
2022-07-28T14:32:38.971Z,43.08
2022-07-28T14:35:12.578Z,44.87
2022-07-28T14:40:39.951Z,42.76
2022-07-28T14:43:14.451Z,43.97
2022-07-28T14:46:00.433Z,42.99
2022-07-28T14:48:44.130Z,43.42
2022-07-28T14:51:17.342Z,43.64
2022-07-28T14:53:52.097Z,43.39
2022-07-28T14:56:25.537Z,42.27
2022-07-28T14:58:58.417Z,42.29
2022-07-28T15:01:29.640Z,42.78
2022-07-28T15:04:10.686Z,42.62
2022-07-28T15:06:45.300Z,42.03
2022-07-28T15:09:18.700Z,41.72
2022-07-28T15:11:52.097Z,41.77
2022-07-28T15:14:25.215Z,41.64
2022-07-28T15:16:59.221Z,42.92
2022-07-28T15:19:34.617Z,42.80
2022-07-28T15:22:07.738Z,41.98
2022-07-28T15:24:42.497Z,41.02
2022-07-28T15:27:18.737Z,40.98
2022-07-28T15:29:55.579Z,43.55
2022-07-28T15:32:37.249Z,45.44
2022-07-28T15:35:20.663Z,42.60
2022-07-28T15:37:53.698Z,43.11
2022-07-28T15:40:26.856Z,42.95
2022-07-28T15:43:01.156Z,40.90
2022-07-28T15:45:35.818Z,41.97
2022-07-28T15:48:12.660Z,42.22
2022-07-28T15:50:49.677Z,41.45
2022-07-28T15:53:23.099Z,41.54
2022-07-28T15:55:56.147Z,41.30
2022-07-28T15:58:31.299Z,40.79
2022-07-28T16:01:04.261Z,41.42
2022-07-28T16:03:37.256Z,42.20
2022-07-28T16:06:10.457Z,41.46
2022-07-28T16:08:44.097Z,41.54
2022-07-28T16:11:17.989Z,41.11
2022-07-28T16:13:51.379Z,41.97
2022-07-28T16:16:24.312Z,42.33
2022-07-28T16:18:59.981Z,42.57
2022-07-28T16:21:32.742Z,42.72
2022-07-28T16:24:03.577Z,43.05
2022-07-28T16:26:39.380Z,42.67
2022-07-28T16:29:14.299Z,42.35
2022-07-28T16:31:47.136Z,42.48
2022-07-28T16:34:18.396Z,42.70
2022-07-28T16:36:51.738Z,42.59
2022-07-28T16:39:24.776Z,42.04
2022-07-28T16:41:59.255Z,41.82
2022-07-28T16:44:32.832Z,42.29
2022-07-28T16:47:06.501Z,42.20
2022-07-28T16:49:45.269Z,42.45
2022-07-28T16:52:19.657Z,42.47
2022-07-28T16:54:53.426Z,42.73
2022-07-28T16:57:26.898Z,43.13
2022-07-28T17:00:00.119Z,43.05
2022-07-28T17:02:33.616Z,42.38
2022-07-28T17:05:07.356Z,42.39
2022-07-28T17:07:45.668Z,43.56
2022-07-28T17:10:20.535Z,42.88
2022-07-28T17:12:59.659Z,43.57
2022-07-28T17:15:33.049Z,44.46
2022-07-28T17:18:06.507Z,45.03
2022-07-28T17:20:42.744Z,45.11
2022-07-28T17:23:17.459Z,45.63
2022-07-28T17:26:34.705Z,45.74
2022-07-28T17:28:43.537Z,46.20
2022-07-28T17:31:16.582Z,46.96
2022-07-28T17:33:50.500Z,47.40
2022-07-28T17:36:23.583Z,48.19
2022-07-28T17:38:55.059Z,49.11
2022-07-28T17:41:30.858Z,50.89
2022-07-28T17:44:03.902Z,52.09
2022-07-28T17:46:37.329Z,54.07
2022-07-28T17:49:11.454Z,55.43
2022-07-28T17:51:45.416Z,55.46
2022-07-28T17:54:20.216Z,55.13
2022-07-28T17:56:57.100Z,53.84
2022-07-28T17:59:35.905Z,53.38
2022-07-28T18:02:24.784Z,54.28
2022-07-28T18:04:57.696Z,54.59
2022-07-28T18:07:31.098Z,54.74
2022-07-28T18:10:24.953Z,54.80
2022-07-28T18:13:00.153Z,54.97
2022-07-28T18:15:33.154Z,55.28
2022-07-28T18:18:03.941Z,55.18
2022-07-28T18:20:38.181Z,55.72
2022-07-28T18:23:11.858Z,55.89
2022-07-28T18:25:45.338Z,56.31
2022-07-28T18:28:21.057Z,56.14
2022-07-28T18:30:53.965Z,56.77
2022-07-28T18:33:26.098Z,57.20
2022-07-28T18:35:58.498Z,57.32
2022-07-28T18:38:32.712Z,57.63
2022-07-28T18:41:05.657Z,58.03
2022-07-28T18:43:38.538Z,58.48
2022-07-28T18:46:11.463Z,59.02
2022-07-28T18:48:48.105Z,59.74
2022-07-28T18:51:25.651Z,60.12
2022-07-28T18:53:59.016Z,60.29
2022-07-28T18:56:32.741Z,60.38
2022-07-28T18:59:05.816Z,60.96
2022-07-28T19:01:38.988Z,60.91
2022-07-28T19:04:11.628Z,62.67
2022-07-28T19:06:45.434Z,65.05
2022-07-28T19:09:18.779Z,66.39
2022-07-28T19:11:53.100Z,66.07
2022-07-28T19:14:26.067Z,65.56
2022-07-28T19:16:58.260Z,66.01
2022-07-28T19:19:33.865Z,65.97
2022-07-28T19:22:09.540Z,65.63
2022-07-28T19:24:42.707Z,65.10
2022-07-28T19:27:13.818Z,64.26
2022-07-28T19:29:46.744Z,65.03
2022-07-28T19:32:20.355Z,67.16
2022-07-28T19:34:53.386Z,67.75
2022-07-28T19:37:26.867Z,70.43
2022-07-28T19:39:59.901Z,70.31
2022-07-28T19:42:35.866Z,73.55
2022-07-28T19:45:10.618Z,74.86
2022-07-28T19:47:43.938Z,75.96
2022-07-28T19:50:14.699Z,76.35
2022-07-28T19:52:47.778Z,77.98
2022-07-28T19:55:23.455Z,78.14
2022-07-28T19:57:56.778Z,79.39
2022-07-28T20:00:27.697Z,79.52
2022-07-28T20:03:00.740Z,81.05
2022-07-28T20:05:31.739Z,81.68
2022-07-28T20:08:04.697Z,82.46
2022-07-28T20:10:41.102Z,82.30
2022-07-28T20:13:16.163Z,82.34
2022-07-28T20:15:48.975Z,82.50
2022-07-28T20:18:22.337Z,84.49
2022-07-28T20:20:57.820Z,85.88
2022-07-28T20:23:30.696Z,85.80
2022-07-28T20:26:04.219Z,86.22
2022-07-28T20:28:38.540Z,87.19
2022-07-28T20:31:17.612Z,88.67
2022-07-28T20:33:50.857Z,88.79
2022-07-28T20:36:26.222Z,89.00
2022-07-28T20:39:15.777Z,92.42
2022-07-28T20:41:54.403Z,92.30
2022-07-28T20:44:29.133Z,92.23
2022-07-28T20:47:06.136Z,92.29
2022-07-28T20:49:40.984Z,94.92
2022-07-28T20:52:14.020Z,95.41
2022-07-28T20:54:54.306Z,93.80
2022-07-28T20:57:27.978Z,95.23
2022-07-28T21:00:05.148Z,93.12
2022-07-28T21:02:38.628Z,90.90
2022-07-28T21:05:26.615Z,92.69
2022-07-28T21:08:09.150Z,91.41
2022-07-28T21:10:49.456Z,91.40
2022-07-28T21:13:20.697Z,89.91
2022-07-28T21:15:53.737Z,89.97
2022-07-28T21:18:26.538Z,89.00
2022-07-28T21:20:59.937Z,89.27
2022-07-28T21:23:32.696Z,89.00
2022-07-28T21:26:11.858Z,88.59
2022-07-28T21:29:03.417Z,88.18
2022-07-28T21:31:36.616Z,88.58
2022-07-28T21:34:29.508Z,88.86
2022-07-28T21:37:02.502Z,89.47
2022-07-28T21:39:37.030Z,89.28
2022-07-28T21:42:10.336Z,89.22
2022-07-28T21:44:43.095Z,89.65
2022-07-28T21:47:36.148Z,89.25
2022-07-28T21:50:11.057Z,89.99
2022-07-28T21:52:44.099Z,89.95
2022-07-28T21:55:17.178Z,90.37
2022-07-28T21:57:51.896Z,91.02
2022-07-28T22:00:25.460Z,91.22
2022-07-28T22:03:00.317Z,90.42
2022-07-28T22:05:34.177Z,90.04
2022-07-28T22:08:09.015Z,89.77
2022-07-28T22:10:42.056Z,90.13
2022-07-28T22:13:20.218Z,89.83
2022-07-28T22:15:53.216Z,89.96
2022-07-28T22:18:27.378Z,90.42
2022-07-28T22:21:00.377Z,90.79
2022-07-28T22:23:34.657Z,90.04
2022-07-28T22:26:07.938Z,90.18
2022-07-28T22:28:40.667Z,89.76
2022-07-28T22:31:13.888Z,90.12
2022-07-28T22:33:47.339Z,90.11
2022-07-28T22:36:21.735Z,90.35
2022-07-28T22:38:55.983Z,89.94
2022-07-28T22:41:29.217Z,89.02
2022-07-28T22:44:02.864Z,88.44
2022-07-28T22:46:37.073Z,89.71
2022-07-28T22:49:10.501Z,89.93
2022-07-28T22:51:48.201Z,89.67
2022-07-28T22:54:21.664Z,89.43
2022-07-28T22:56:54.741Z,89.94
2022-07-28T22:59:30.010Z,90.21
2022-07-28T23:02:10.976Z,89.93
2022-07-28T23:04:51.185Z,89.91
2022-07-28T23:07:35.271Z,89.78
2022-07-28T23:10:17.829Z,89.53
2022-07-28T23:12:50.938Z,89.29
2022-07-28T23:15:40.670Z,89.11
2022-07-28T23:18:15.421Z,88.89
2022-07-28T23:20:49.419Z,88.30
2022-07-28T23:23:22.345Z,88.19
2022-07-28T23:25:55.099Z,87.99
2022-07-28T23:28:26.778Z,87.96
2022-07-28T23:30:59.821Z,87.74
2022-07-28T23:33:54.565Z,87.41
2022-07-28T23:36:28.221Z,86.85
2022-07-28T23:39:02.302Z,86.20
2022-07-28T23:41:40.658Z,86.09
2022-07-28T23:44:14.418Z,85.39
2022-07-28T23:46:49.253Z,84.94
2022-07-28T23:49:22.354Z,84.53
2022-07-28T23:51:58.261Z,84.28
2022-07-28T23:54:31.660Z,84.61
2022-07-28T23:57:02.537Z,85.43
2022-07-28T23:59:38.623Z,85.76
